createdAt,value
2023-04-16T00:00:56.626Z,98893.91
2023-04-16T00:03:59.473Z,98894.47
2023-04-16T00:07:01.920Z,98889.75
2023-04-16T00:10:04.476Z,98889.75
2023-04-16T00:13:06.780Z,98890.66
2023-04-16T00:16:09.093Z,98888.81
2023-04-16T00:19:11.506Z,98891.84
2023-04-16T00:22:13.917Z,98884.12
2023-04-16T00:25:16.384Z,98887.97
2023-04-16T00:28:18.552Z,98888.00
2023-04-16T00:31:31.898Z,98886.75
2023-04-16T00:34:34.133Z,98891.03
2023-04-16T00:37:36.349Z,98897.03
2023-04-16T00:40:38.665Z,98897.69
2023-04-16T00:43:40.857Z,98897.22
2023-04-16T00:46:43.378Z,98895.87
2023-04-16T00:49:45.870Z,98900.16
2023-04-16T00:52:49.313Z,98901.97
2023-04-16T00:55:51.782Z,98892.97
2023-04-16T00:58:55.225Z,98897.69
2023-04-16T01:01:57.508Z,98894.69
2023-04-16T01:05:00.841Z,98896.63
2023-04-16T01:08:03.041Z,98891.34
2023-04-16T01:11:05.804Z,98887.84
2023-04-16T01:14:08.030Z,98889.47
2023-04-16T01:17:10.251Z,98892.81
2023-04-16T01:20:12.444Z,98881.22
2023-04-16T01:23:15.235Z,98891.94
2023-04-16T01:26:17.384Z,98896.44
2023-04-16T01:29:19.683Z,98896.44
2023-04-16T01:32:22.167Z,98886.66
2023-04-16T01:35:24.935Z,98891.16
2023-04-16T01:38:27.090Z,98892.06
2023-04-16T01:41:30.573Z,98898.31
2023-04-16T01:44:32.800Z,98897.31
2023-04-16T01:47:35.046Z,98898.13
2023-04-16T01:50:37.637Z,98901.75
2023-04-16T01:53:39.990Z,98908.59
2023-04-16T01:56:42.246Z,98906.59
2023-04-16T01:59:44.497Z,98909.94
2023-04-16T02:02:47.073Z,98913.31
2023-04-16T02:05:49.426Z,98906.94
2023-04-16T02:08:51.642Z,98908.31
2023-04-16T02:11:53.779Z,98913.50
2023-04-16T02:14:55.970Z,98912.84
2023-04-16T02:17:58.239Z,98912.03
2023-04-16T02:21:00.831Z,98913.75
2023-04-16T02:24:03.247Z,98915.12
2023-04-16T02:27:05.372Z,98918.47
2023-04-16T02:30:08.291Z,98926.66
2023-04-16T02:33:11.713Z,98926.56
2023-04-16T02:36:13.915Z,98928.47
2023-04-16T02:39:16.267Z,98915.75
2023-04-16T02:42:18.424Z,98920.41
2023-04-16T02:45:21.346Z,98924.31
2023-04-16T02:48:23.533Z,98924.56
2023-04-16T02:51:26.176Z,98918.41
2023-04-16T02:54:28.378Z,98924.56
2023-04-16T02:57:30.547Z,98929.75
2023-04-16T03:00:32.731Z,98930.91
2023-04-16T03:03:34.935Z,98931.78
2023-04-16T03:06:37.091Z,98928.19
2023-04-16T03:09:40.447Z,98922.72
2023-04-16T03:12:42.664Z,98923.72
2023-04-16T03:15:50.794Z,98922.88
2023-04-16T03:18:53.087Z,98922.88
2023-04-16T03:21:55.247Z,98930.56
2023-04-16T03:24:57.446Z,98931.19
2023-04-16T03:27:59.667Z,98933.66
2023-04-16T03:31:01.962Z,98936.38
2023-04-16T03:34:04.188Z,98938.31
2023-04-16T03:37:06.432Z,98944.69
2023-04-16T03:40:08.982Z,98952.41
2023-04-16T03:43:11.360Z,98954.94
2023-04-16T03:46:13.560Z,98968.44
2023-04-16T03:49:15.862Z,98980.28
2023-04-16T03:52:18.108Z,98994.91
2023-04-16T03:55:20.313Z,98988.72
2023-04-16T03:58:22.473Z,98989.69
2023-04-16T04:01:24.641Z,98987.81
2023-04-16T04:04:27.336Z,98992.97
2023-04-16T04:07:29.573Z,98995.84
2023-04-16T04:10:33.054Z,98984.47
2023-04-16T04:13:35.344Z,98994.16
2023-04-16T04:16:37.584Z,98996.00
2023-04-16T04:19:47.204Z,99012.09
2023-04-16T04:22:56.701Z,99004.97
2023-04-16T04:25:59.496Z,99006.81
2023-04-16T04:29:01.819Z,99007.34
2023-04-16T04:32:04.271Z,99003.94
2023-04-16T04:35:07.021Z,99005.84
2023-04-16T04:38:09.190Z,99002.97
2023-04-16T04:41:11.455Z,99006.06
2023-04-16T04:44:13.663Z,99001.00
2023-04-16T04:47:16.025Z,99001.69
2023-04-16T04:50:18.228Z,98997.94
2023-04-16T04:53:20.760Z,99003.16
2023-04-16T04:56:23.010Z,99016.06
2023-04-16T04:59:25.705Z,99019.13
2023-04-16T05:02:27.993Z,99014.59
2023-04-16T05:05:30.474Z,99023.31
2023-04-16T05:08:32.632Z,99026.97
2023-04-16T05:11:35.092Z,99031.06
2023-04-16T05:14:37.278Z,99026.28
2023-04-16T05:17:39.475Z,99026.97
2023-04-16T05:20:41.774Z,99034.75
2023-04-16T05:23:43.981Z,99029.53
2023-04-16T05:26:46.179Z,99032.94
2023-04-16T05:29:48.382Z,99026.59
2023-04-16T05:32:50.770Z,99016.97
2023-04-16T05:35:53.021Z,99022.22
2023-04-16T05:38:55.273Z,99030.97
2023-04-16T05:41:57.459Z,99036.09
2023-04-16T05:44:59.656Z,99057.78
2023-04-16T05:48:01.881Z,99065.19
2023-04-16T05:51:04.351Z,99072.00
2023-04-16T05:54:06.562Z,99067.03
2023-04-16T05:57:08.989Z,99067.97
2023-04-16T06:00:11.410Z,99068.47
2023-04-16T06:03:13.706Z,99069.03
2023-04-16T06:06:16.092Z,99075.09
2023-04-16T06:09:19.033Z,99073.09
2023-04-16T06:12:21.205Z,99077.41
2023-04-16T06:15:23.413Z,99082.59
2023-04-16T06:18:25.641Z,99073.84
2023-04-16T06:21:28.744Z,99078.56
2023-04-16T06:24:31.120Z,99077.81
2023-04-16T06:27:33.308Z,99076.88
2023-04-16T06:30:35.654Z,99066.97
2023-04-16T06:33:37.809Z,99071.78
2023-04-16T06:36:40.024Z,99075.44
2023-04-16T06:39:42.284Z,99069.78
2023-04-16T06:42:45.671Z,99072.63
2023-04-16T06:45:48.053Z,99072.47
2023-04-16T06:48:50.561Z,99069.19
2023-04-16T06:51:52.836Z,99066.91
2023-04-16T06:54:55.087Z,99057.09
2023-04-16T06:57:57.258Z,99055.56
2023-04-16T07:00:59.549Z,99060.03
2023-04-16T07:04:02.311Z,99065.09
2023-04-16T07:07:04.746Z,99059.62
2023-04-16T07:10:08.215Z,99067.66
2023-04-16T07:13:10.487Z,99054.75
2023-04-16T07:16:12.693Z,99063.47
2023-04-16T07:19:14.899Z,99073.88
2023-04-16T07:22:17.111Z,99067.16
2023-04-16T07:25:19.357Z,99071.72
2023-04-16T07:28:21.568Z,99075.25
2023-04-16T07:31:23.790Z,99075.31
2023-04-16T07:34:26.097Z,99076.59
2023-04-16T07:37:28.319Z,99070.94
2023-04-16T07:40:30.737Z,99075.62
2023-04-16T07:43:32.922Z,99065.63
2023-04-16T07:46:45.661Z,99071.34
2023-04-16T07:49:50.680Z,99069.09
2023-04-16T07:52:52.900Z,99070.09
2023-04-16T07:55:55.147Z,99076.44
2023-04-16T07:58:59.469Z,99069.28
2023-04-16T08:02:06.336Z,99070.50
2023-04-16T08:05:08.925Z,99075.78
2023-04-16T08:08:11.202Z,99076.81
2023-04-16T08:11:13.473Z,99075.00
2023-04-16T08:14:16.946Z,99078.47
2023-04-16T08:17:19.211Z,99074.38
2023-04-16T08:20:21.432Z,99076.75
2023-04-16T08:23:23.642Z,99074.69
2023-04-16T08:26:26.319Z,99075.06
2023-04-16T08:29:28.514Z,99069.09
2023-04-16T08:32:30.663Z,99074.62
2023-04-16T08:35:32.940Z,99082.31
2023-04-16T08:38:35.144Z,99076.00
2023-04-16T08:41:39.294Z,99081.22
2023-04-16T08:44:44.257Z,99085.75
2023-04-16T08:47:48.541Z,99083.00
2023-04-16T08:50:54.972Z,99092.06
2023-04-16T08:54:05.215Z,99094.06
2023-04-16T08:57:10.712Z,99097.12
2023-04-16T09:00:13.898Z,99101.91
2023-04-16T09:03:16.372Z,99101.00
2023-04-16T09:06:18.696Z,99108.03
2023-04-16T09:09:22.382Z,99107.44
2023-04-16T09:12:24.687Z,99109.94
2023-04-16T09:15:27.303Z,99110.53
2023-04-16T09:18:30.789Z,99108.53
2023-04-16T09:21:33.056Z,99117.87
2023-04-16T09:24:35.503Z,99122.59
2023-04-16T09:27:37.872Z,99119.03
2023-04-16T09:30:40.152Z,99122.09
2023-04-16T09:33:43.702Z,99127.88
2023-04-16T09:36:45.898Z,99135.13
2023-04-16T09:40:02.495Z,99127.22
2023-04-16T09:43:19.192Z,99129.38
2023-04-16T09:46:21.709Z,99134.25
2023-04-16T09:49:23.916Z,99134.44
2023-04-16T09:52:26.081Z,99141.31
2023-04-16T09:55:28.324Z,99134.44
2023-04-16T09:58:30.678Z,99147.63
2023-04-16T10:01:33.022Z,99137.06
2023-04-16T10:04:52.130Z,99142.69
2023-04-16T10:08:00.681Z,99144.59
2023-04-16T10:11:02.986Z,99149.34
2023-04-16T10:14:05.408Z,99144.44
2023-04-16T10:17:11.628Z,99139.81
2023-04-16T10:20:16.710Z,99137.03
2023-04-16T10:23:22.531Z,99136.34
2023-04-16T10:26:24.853Z,99133.44
2023-04-16T10:29:28.254Z,99134.47
2023-04-16T10:32:31.498Z,99131.72
2023-04-16T10:35:33.723Z,99132.41
2023-04-16T10:38:40.123Z,99138.44
2023-04-16T10:41:43.062Z,99136.00
2023-04-16T10:44:46.184Z,99129.47
2023-04-16T10:47:48.438Z,99127.03
2023-04-16T10:50:57.656Z,99120.88
2023-04-16T10:54:24.631Z,99118.13
2023-04-16T10:57:29.368Z,99125.66
2023-04-16T11:00:31.553Z,99121.25
2023-04-16T11:03:34.073Z,99109.59
2023-04-16T11:06:37.520Z,99114.84
2023-04-16T11:09:53.319Z,99116.56
2023-04-16T11:12:56.217Z,99117.84
2023-04-16T11:15:58.910Z,99111.38
2023-04-16T11:19:01.332Z,99114.66
2023-04-16T11:22:04.091Z,99112.22
2023-04-16T11:25:06.526Z,99114.38
2023-04-16T11:28:08.732Z,99110.97
2023-04-16T11:31:12.656Z,99112.06
2023-04-16T11:34:15.562Z,99113.88
2023-04-16T11:37:38.761Z,99111.88
2023-04-16T11:40:42.339Z,99116.75
2023-04-16T11:43:44.703Z,99106.72
2023-04-16T11:46:47.126Z,99098.91
2023-04-16T11:49:49.453Z,99102.56
2023-04-16T11:52:53.424Z,99098.00
2023-04-16T11:55:55.792Z,99099.06
2023-04-16T11:59:17.475Z,99095.56
2023-04-16T12:02:38.057Z,99101.84
2023-04-16T12:05:40.767Z,99093.22
2023-04-16T12:08:42.998Z,99091.91
2023-04-16T12:11:45.304Z,99085.41
2023-04-16T12:14:51.299Z,99097.78
2023-04-16T12:18:09.564Z,99081.53
2023-04-16T12:21:12.350Z,99081.78
2023-04-16T12:24:17.282Z,99076.09
2023-04-16T12:27:19.481Z,99085.63
2023-04-16T12:30:23.487Z,99079.81
2023-04-16T12:33:27.699Z,99075.03
2023-04-16T12:36:29.874Z,99076.66
2023-04-16T12:39:32.034Z,99076.47
2023-04-16T12:42:37.452Z,99068.75
2023-04-16T12:45:40.456Z,99069.56
2023-04-16T12:48:43.624Z,99062.72
2023-04-16T12:51:46.879Z,99059.56
2023-04-16T12:54:49.009Z,99057.78
2023-04-16T12:57:52.897Z,99059.22
2023-04-16T13:00:55.065Z,99057.59
2023-04-16T13:03:57.578Z,99053.66
2023-04-16T13:07:00.616Z,99051.97
2023-04-16T13:10:02.983Z,99048.13
2023-04-16T13:13:06.067Z,99049.94
2023-04-16T13:16:08.821Z,99040.00
2023-04-16T13:19:11.233Z,99034.41
2023-04-16T13:22:13.876Z,99042.50
2023-04-16T13:25:16.224Z,99040.56
2023-04-16T13:28:18.409Z,99051.69
2023-04-16T13:31:22.209Z,99043.47
2023-04-16T13:34:24.717Z,99038.94
2023-04-16T13:37:27.040Z,99026.22
2023-04-16T13:40:29.373Z,99029.91
2023-04-16T13:43:32.817Z,99024.28
2023-04-16T13:46:35.267Z,99021.66
2023-04-16T13:49:37.677Z,99021.75
2023-04-16T13:52:42.120Z,99012.91
2023-04-16T13:55:44.542Z,99020.53
2023-04-16T13:58:46.908Z,99012.44
2023-04-16T14:01:49.525Z,99013.16
2023-04-16T14:04:51.893Z,99007.03
2023-04-16T14:07:54.266Z,99003.06
2023-04-16T14:10:57.102Z,99008.50
2023-04-16T14:13:59.488Z,99009.50
2023-04-16T14:17:03.263Z,99010.37
2023-04-16T14:20:06.995Z,99018.53
2023-04-16T14:23:09.236Z,99018.31
2023-04-16T14:26:11.508Z,99018.47
2023-04-16T14:29:13.748Z,99009.78
2023-04-16T14:32:16.616Z,99015.78
2023-04-16T14:35:18.888Z,99013.53
2023-04-16T14:38:21.362Z,99013.91
2023-04-16T14:41:23.847Z,99001.19
2023-04-16T14:44:26.067Z,98998.16
2023-04-16T14:47:28.800Z,99002.03
2023-04-16T14:50:31.030Z,98995.84
2023-04-16T14:53:34.451Z,98993.69
2023-04-16T14:56:36.596Z,99001.47
2023-04-16T14:59:38.771Z,99001.31
2023-04-16T15:02:42.077Z,98995.44
2023-04-16T15:05:44.664Z,98993.25
2023-04-16T15:08:46.889Z,98989.91
2023-04-16T15:11:49.030Z,98994.06
2023-04-16T15:14:51.365Z,98982.66
2023-04-16T15:17:53.638Z,98981.25
2023-04-16T15:20:56.858Z,98984.75
2023-04-16T15:23:59.252Z,98986.56
2023-04-16T15:27:02.490Z,98981.72
2023-04-16T15:30:05.215Z,98987.63
2023-04-16T15:33:12.173Z,98984.75
2023-04-16T15:36:14.843Z,98988.28
2023-04-16T15:39:17.447Z,98989.97
2023-04-16T15:42:19.724Z,98990.78
2023-04-16T15:45:22.496Z,98988.75
2023-04-16T15:48:25.031Z,98988.19
2023-04-16T15:51:29.368Z,98984.19
2023-04-16T15:54:32.109Z,98979.00
2023-04-16T15:57:34.344Z,98975.75
2023-04-16T16:00:36.567Z,98984.69
2023-04-16T16:03:39.030Z,98987.22
2023-04-16T16:06:41.867Z,98991.91
2023-04-16T16:09:44.352Z,98984.38
2023-04-16T16:12:46.930Z,98981.47
2023-04-16T16:15:50.655Z,98989.00
2023-04-16T16:18:53.197Z,98989.59
2023-04-16T16:21:55.922Z,98993.78
2023-04-16T16:24:58.461Z,98996.69
2023-04-16T16:28:01.550Z,98998.25
2023-04-16T16:31:06.198Z,99000.50
2023-04-16T16:34:11.129Z,99002.63
2023-04-16T16:37:19.449Z,99003.09
2023-04-16T16:40:21.960Z,98994.34
2023-04-16T16:43:24.340Z,99000.75
2023-04-16T16:46:27.317Z,98991.81
2023-04-16T16:49:29.690Z,99001.25
2023-04-16T16:52:32.281Z,99007.06
2023-04-16T16:55:35.563Z,99000.44
2023-04-16T16:58:38.019Z,99001.28
2023-04-16T17:01:40.496Z,99003.63
2023-04-16T17:04:43.168Z,99003.97
2023-04-16T17:07:45.834Z,99004.78
2023-04-16T17:10:48.692Z,99003.97
2023-04-16T17:13:52.169Z,99010.75
2023-04-16T17:16:54.644Z,99005.41
2023-04-16T17:19:57.281Z,99012.06
2023-04-16T17:22:59.795Z,99013.53
2023-04-16T17:26:02.247Z,99016.59
2023-04-16T17:29:04.768Z,99016.28
2023-04-16T17:32:07.389Z,99014.66
2023-04-16T17:35:10.258Z,99015.53
2023-04-16T17:38:12.725Z,99008.22
2023-04-16T17:41:15.799Z,99008.59
2023-04-16T17:44:18.957Z,99025.44
2023-04-16T17:47:21.211Z,99024.16
2023-04-16T17:50:24.325Z,99030.09
2023-04-16T17:53:26.874Z,99026.84
2023-04-16T17:56:29.305Z,99036.50
2023-04-16T17:59:31.508Z,99042.66
2023-04-16T18:02:34.008Z,99038.94
2023-04-16T18:05:36.949Z,99044.06
2023-04-16T18:08:39.392Z,99043.38
2023-04-16T18:11:41.917Z,99045.34
2023-04-16T18:14:44.758Z,99036.53
2023-04-16T18:17:47.465Z,99040.13
2023-04-16T18:20:52.327Z,99039.44
2023-04-16T18:23:54.711Z,99041.63
2023-04-16T18:26:57.168Z,99041.63
2023-04-16T18:29:59.537Z,99039.66
2023-04-16T18:36:07.761Z,99034.91
2023-04-16T18:39:10.704Z,99035.25
2023-04-16T18:42:13.196Z,99036.19
2023-04-16T18:45:21.147Z,99040.69
2023-04-16T18:48:24.506Z,99034.53
2023-04-16T18:51:28.297Z,99030.81
2023-04-16T18:54:30.791Z,99033.84
2023-04-16T18:57:33.044Z,99044.00
2023-04-16T19:00:35.585Z,99042.72
2023-04-16T19:03:38.576Z,99046.78
2023-04-16T19:06:41.219Z,99056.87
2023-04-16T19:09:43.780Z,99045.84
2023-04-16T19:12:46.342Z,99046.22
2023-04-16T19:15:49.391Z,99047.13
2023-04-16T19:18:51.578Z,99048.31
2023-04-16T19:21:54.246Z,99044.00
2023-04-16T19:24:56.630Z,99044.47
2023-04-16T19:27:59.267Z,99046.78
2023-04-16T19:31:01.712Z,99036.25
2023-04-16T19:34:03.950Z,99035.88
2023-04-16T19:37:06.432Z,99032.91
2023-04-16T19:40:10.000Z,99034.63
2023-04-16T19:43:12.705Z,99038.59
2023-04-16T19:46:15.507Z,99029.72
2023-04-16T19:49:18.183Z,99035.06
2023-04-16T19:52:20.848Z,99031.97
2023-04-16T19:55:23.142Z,99026.63
2023-04-16T19:58:25.907Z,99028.34
2023-04-16T20:01:28.458Z,99018.69
2023-04-16T20:04:31.023Z,99019.03
2023-04-16T20:07:33.467Z,99022.97
2023-04-16T20:10:36.144Z,99029.41
2023-04-16T20:13:38.898Z,99019.50
2023-04-16T20:16:43.629Z,99023.56
2023-04-16T20:19:47.531Z,99024.22
2023-04-16T20:22:50.017Z,99022.81
2023-04-16T20:25:52.534Z,99021.78
2023-04-16T20:28:55.056Z,99022.38
2023-04-16T20:31:57.257Z,99016.47
2023-04-16T20:34:59.909Z,99025.03
2023-04-16T20:38:02.097Z,99023.63
2023-04-16T20:41:10.156Z,99025.25
2023-04-16T20:44:18.807Z,99021.84
2023-04-16T20:47:22.551Z,99026.84
2023-04-16T20:50:25.471Z,99020.00
2023-04-16T20:53:28.044Z,99017.94
2023-04-16T20:56:30.224Z,99014.88
2023-04-16T20:59:32.435Z,99024.38
2023-04-16T21:02:34.846Z,99026.59
2023-04-16T21:05:37.176Z,99015.72
2023-04-16T21:08:39.419Z,99008.31
2023-04-16T21:11:41.628Z,99007.72
2023-04-16T21:14:43.821Z,99001.66
2023-04-16T21:17:46.053Z,99009.03
2023-04-16T21:20:48.286Z,99013.19
2023-04-16T21:23:51.078Z,99009.41
2023-04-16T21:26:53.264Z,99003.06
2023-04-16T21:29:55.612Z,99012.44
2023-04-16T21:32:57.816Z,99011.56
2023-04-16T21:36:00.132Z,99001.50
2023-04-16T21:39:02.397Z,99003.19
2023-04-16T21:42:04.730Z,98999.72
2023-04-16T21:45:10.510Z,99005.22
2023-04-16T21:48:12.820Z,99002.09
2023-04-16T21:51:15.794Z,99002.53
2023-04-16T21:54:20.158Z,98990.69
2023-04-16T21:57:22.392Z,98995.41
2023-04-16T22:00:24.827Z,98992.31
2023-04-16T22:03:28.251Z,98991.00
2023-04-16T22:06:30.561Z,98993.66
2023-04-16T22:09:32.747Z,98980.41
2023-04-16T22:12:37.897Z,98976.94
2023-04-16T22:15:40.488Z,98974.94
2023-04-16T22:18:42.882Z,98981.44
2023-04-16T22:21:45.596Z,98974.22
2023-04-16T22:24:47.785Z,98985.59
2023-04-16T22:27:50.010Z,98985.94
2023-04-16T22:30:52.247Z,98978.78
2023-04-16T22:33:54.473Z,98979.97
2023-04-16T22:36:57.009Z,98979.97
2023-04-16T22:39:59.269Z,98978.41
2023-04-16T22:43:01.456Z,98969.81
2023-04-16T22:46:04.911Z,98969.81
2023-04-16T22:49:07.183Z,98965.53
2023-04-16T22:52:09.310Z,98964.13
2023-04-16T22:55:11.521Z,98962.34
2023-04-16T22:58:13.703Z,98958.22
2023-04-16T23:01:16.952Z,98960.28
2023-04-16T23:04:19.202Z,98954.44
2023-04-16T23:07:21.408Z,98947.84
2023-04-16T23:10:23.570Z,98946.91
2023-04-16T23:13:25.804Z,98950.50
2023-04-16T23:16:28.727Z,98945.72
2023-04-16T23:19:31.770Z,98944.00
2023-04-16T23:22:33.993Z,98936.91
2023-04-16T23:25:36.228Z,98934.41
2023-04-16T23:28:38.417Z,98938.53
2023-04-16T23:31:40.696Z,98934.47
2023-04-16T23:34:42.895Z,98928.19
2023-04-16T23:37:45.164Z,98929.75
2023-04-16T23:40:47.412Z,98930.44
2023-04-16T23:43:49.610Z,98927.75
2023-04-16T23:46:51.824Z,98929.00
2023-04-16T23:49:54.064Z,98919.84
2023-04-16T23:52:56.267Z,98923.69
2023-04-16T23:55:58.547Z,98912.22
2023-04-16T23:59:00.805Z,98919.16
